Echo Bay, Nevada
Current Conditions -  °F | °C
As of 10:58 AM on Sunday 23 Nov 2014 (Local Time) from KLSV Reporting Station
Clear Clear  
Wind Chill: 60°   Ceiling: Unl
Heat Index: 60°   Visibility: 10mi
Dew Point: 13°   Wind: 18mph
Humidity: 16%   Direction: 360°N
Pressure: 30.26"   Gusts: 30mph
Location:  36.5809°N, 114.605°W
Report Text: KLSV 231858Z AUTO 36016G26KT 280V020 10SM CLR 16/M11 A3026 RMK AO2 PK WND 36026/47 SLP240 T01551106
Loading
Personal Weather Stations






























Interactive Weather Map New forecast layout! Learn more

10-Day Weather Forecast

Advertisements
Track Severe Weather on mobile